Time;durP1;ratioP1;P1;durP2;ratioP2;P2;SDS_P1;SDS_P2;PMS_P1;PMS_P2;Temp;Humidity;BMP_temperature;BMP_pressure;BME280_temperature;BME280_humidity;BME280_pressure;Samples;Min_cycle;Max_cycle;Signal;HPM_P1;HPM_P2
2024/02/26 00:36:52;;;;;;;0.27;0.20;;;6.70;99.90;;;;;;5197421;22;20579;-95
2024/02/26 00:40:13;;;;;;;;;;;;;;;;;;;;;
2024/02/26 00:43:30;;;;;;;0.93;0.40;;;6.70;99.90;;;;;;5172869;23;20158;-95
2024/02/26 00:45:37;;;;;;;0.37;0.10;;;6.60;99.90;;;;;;5020539;23;20161;-95
2024/02/26 00:48:04;;;;;;;;;;;;;;;;;;;;;
2024/02/26 00:51:22;;;;;;;0.10;0.10;;;6.60;99.90;;;;;;5047691;23;20303;-94
2024/02/26 00:53:55;;;;;;;0.47;0.20;;;6.50;99.90;;;;;;5000517;23;20156;-95
2024/02/26 00:56:59;;;;;;;2.60;0.53;;;6.60;99.90;;;;;;4938036;23;20244;-95
2024/02/26 01:06:22;;;;;;;0.20;0.20;;;6.70;99.90;;;;;;4884593;24;20234;-95
2024/02/26 01:15:43;;;;;;;1.03;0.67;;;6.80;99.90;;;;;;4843522;24;20159;-95
2024/02/26 01:19:20;;;;;;;0.17;0.13;;;6.60;99.90;;;;;;4873474;24;20164;-96
2024/02/26 01:21:48;;;;;;;1.93;0.20;;;6.70;99.90;;;;;;4881258;24;20219;-94
2024/02/26 01:26:44;;;;;;;3.57;0.60;;;6.70;99.90;;;;;;4898085;24;20163;-95
2024/02/26 01:29:24;;;;;;;0.30;0.30;;;6.50;99.90;;;;;;4934737;24;20237;-95
2024/02/26 01:32:11;;;;;;;0.43;0.30;;;6.50;99.90;;;;;;4885819;23;20219;-94
2024/02/26 01:37:58;;;;;;;4.63;0.67;;;6.50;99.90;;;;;;4994179;23;20686;-94
2024/02/26 01:39:59;;;;;;;1.30;0.60;;;6.50;99.90;;;;;;4980290;23;20161;-93
2024/02/26 01:42:30;;;;;;;1.23;0.30;;;6.60;99.90;;;;;;5050511;23;20185;-94
2024/02/26 01:45:15;;;;;;;;;;;;;;;;;;;;;
2024/02/26 01:48:15;;;;;;;1.20;0.37;;;6.70;99.90;;;;;;5053116;23;20184;-95
2024/02/26 01:50:37;;;;;;;0.23;0.20;;;6.70;99.90;;;;;;5073671;23;20232;-94
2024/02/26 01:53:20;;;;;;;0.10;0.10;;;6.70;99.90;;;;;;5075296;23;20624;-94
2024/02/26 01:55:51;;;;;;;0.53;0.40;;;6.70;99.90;;;;;;5026509;23;20186;-95
2024/02/26 01:58:18;;;;;;;0.43;0.30;;;6.70;99.90;;;;;;5083645;23;20224;-94
2024/02/26 02:00:50;;;;;;;0.33;0.20;;;6.60;99.90;;;;;;5097859;23;20164;-94
2024/02/26 02:03:16;;;;;;;;;;;;;;;;;;;;;
2024/02/26 02:05:32;;;;;;;0.30;0.20;;;6.60;99.90;;;;;;5107506;23;20206;-94
2024/02/26 02:07:52;;;;;;;0.57;0.30;;;6.70;99.90;;;;;;5123666;23;20144;-93
2024/02/26 02:09:56;;;;;;;1.70;0.20;;;6.60;99.90;;;;;;5147462;23;20154;-94
2024/02/26 02:14:39;;;;;;;0.20;0.20;;;6.60;99.90;;;;;;5140019;23;20159;-95
2024/02/26 02:16:43;;;;;;;1.33;0.30;;;6.70;99.90;;;;;;5122688;23;20148;-94
2024/02/26 02:19:14;;;;;;;;;;;;;;;;;;;;;
2024/02/26 02:24:23;;;;;;;0.10;0.10;;;6.70;99.90;;;;;;5144546;23;20209;-95
2024/02/26 02:26:47;;;;;;;0.83;0.43;;;6.60;99.90;;;;;;5116347;23;20532;-94
2024/02/26 02:32:36;;;;;;;1.67;0.40;;;6.60;99.90;;;;;;5127970;23;20195;-95
2024/02/26 02:34:44;;;;;;;0.20;0.10;;;6.60;99.90;;;;;;5097627;23;20183;-96
2024/02/26 02:39:28;;;;;;;0.20;0.20;;;6.60;99.90;;;;;;5074902;23;20643;-94
2024/02/26 02:42:25;;;;;;;;;;;;;;;;;;;;;
2024/02/26 02:59:11;;;;;;;;;;;;;;;;;;;;;
2024/02/26 03:04:58;;;;;;;0.50;0.33;;;6.50;99.90;;;;;;5129145;23;20478;-96
2024/02/26 03:14:15;;;;;;;0.73;0.50;;;6.60;99.90;;;;;;5005449;23;20257;-96
2024/02/26 03:17:08;;;;;;;0.30;0.20;;;6.70;99.90;;;;;;4976257;23;20168;-94
2024/02/26 03:20:54;;;;;;;;;;;;;;;;;;;;;
2024/02/26 03:26:41;;;;;;;;;;;;;;;;;;;;;
2024/02/26 03:29:48;;;;;;;1.03;0.30;;;6.70;99.90;;;;;;4911960;24;20226;-94
2024/02/26 03:32:50;;;;;;;;;;;;;;;;;;;;;
2024/02/26 03:39:05;;;;;;;;;;;;;;;;;;;;;
2024/02/26 03:41:46;;;;;;;0.83;0.30;;;6.60;99.90;;;;;;4887844;24;20202;-96
2024/02/26 04:51:30;;;;;;;4.00;2.33;;;6.40;99.90;;;;;;5197455;22;20204;-94
2024/02/26 04:58:31;;;;;;;4.80;2.83;;;6.40;99.90;;;;;;5156990;22;20261;-94
2024/02/26 05:01:20;;;;;;;2.97;2.13;;;6.30;99.90;;;;;;5191903;22;20192;-94
2024/02/26 05:07:35;;;;;;;9.70;3.00;;;6.30;99.90;;;;;;5108839;23;20173;-94
2024/02/26 06:05:46;;;;;;;12.57;5.93;;;6.30;99.90;;;;;;5027929;23;20170;-94
2024/02/26 07:01:14;;;;;;;11.20;7.20;;;6.20;99.90;;;;;;5196165;22;20254;-93
2024/02/26 07:03:22;;;;;;;15.00;6.73;;;6.30;99.90;;;;;;5168611;23;20155;-94
2024/02/26 07:05:41;;;;;;;12.87;6.97;;;6.20;99.90;;;;;;5168148;23;20532;-94
2024/02/26 07:10:21;;;;;;;9.63;5.73;;;6.20;99.90;;;;;;5168531;23;20524;-94
2024/02/26 07:12:38;;;;;;;9.27;3.47;;;6.10;99.90;;;;;;5144013;23;20147;-94
2024/02/26 07:14:59;;;;;;;10.50;6.53;;;6.10;99.90;;;;;;5167909;23;20237;-94
2024/02/26 07:17:02;;;;;;;8.47;5.27;;;6.10;99.90;;;;;;5168434;23;20183;-93
2024/02/26 07:19:13;;;;;;;9.63;6.50;;;6.10;99.90;;;;;;5143852;23;20531;-92
2024/02/26 07:21:24;;;;;;;12.80;6.93;;;6.10;99.90;;;;;;5144804;23;20151;-93
2024/02/26 07:23:35;;;;;;;9.83;5.20;;;6.10;99.90;;;;;;5169058;23;20154;-94
2024/02/26 07:25:54;;;;;;;;;;;;;;;;;;;;;
2024/02/26 07:27:58;;;;;;;11.73;6.33;;;6.10;99.90;;;;;;5168098;22;20167;-92
2024/02/26 07:30:14;;;;;;;;;;;;;;;;;;;;;
2024/02/26 07:33:06;;;;;;;16.10;8.93;;;6.10;99.90;;;;;;5189766;22;20473;-95
2024/02/26 07:35:20;;;;;;;13.30;7.43;;;6.10;99.90;;;;;;5144048;23;20155;-93
2024/02/26 07:38:19;;;;;;;10.63;6.03;;;6.10;99.90;;;;;;5147354;23;20225;-95
2024/02/26 07:40:20;;;;;;;9.83;5.70;;;6.10;99.90;;;;;;5135383;23;20233;-94
2024/02/26 07:42:32;;;;;;;9.90;6.27;;;6.10;99.90;;;;;;5168267;23;20589;-94
2024/02/26 07:45:00;;;;;;;8.97;4.73;;;6.10;99.90;;;;;;5168499;23;20290;-95
2024/02/26 07:47:40;;;;;;;;;;;;;;;;;;;;;
2024/02/26 07:53:02;;;;;;;9.43;5.57;;;6.10;99.90;;;;;;5184988;22;20162;-94
2024/02/26 07:55:28;;;;;;;10.23;6.30;;;6.10;99.90;;;;;;5172120;22;20178;-93
2024/02/26 07:57:44;;;;;;;11.73;7.07;;;6.20;99.90;;;;;;5144086;23;20151;-93
2024/02/26 07:59:49;;;;;;;6.47;3.63;;;6.20;99.90;;;;;;5143954;23;20182;-94
2024/02/26 08:01:51;;;;;;;11.30;5.27;;;6.20;99.90;;;;;;5143490;23;20167;-93
2024/02/26 08:03:58;;;;;;;9.50;5.77;;;6.20;99.90;;;;;;5144139;23;20576;-94
2024/02/26 08:06:01;;;;;;;7.37;4.27;;;6.10;99.90;;;;;;5144722;23;20159;-94
2024/02/26 08:08:09;;;;;;;13.43;6.30;;;6.20;99.90;;;;;;5167955;23;20181;-94
2024/02/26 08:10:43;;;;;;;13.27;6.87;;;6.20;99.90;;;;;;5143225;23;20156;-94
2024/02/26 08:13:12;;;;;;;9.70;5.33;;;6.10;99.90;;;;;;5142879;23;20159;-94
2024/02/26 08:15:16;;;;;;;9.80;5.17;;;6.20;99.90;;;;;;5100890;23;20225;-94
2024/02/26 08:17:29;;;;;;;11.77;6.70;;;6.20;99.90;;;;;;5168722;23;20517;-94
2024/02/26 08:19:54;;;;;;;;;;;;;;;;;;;;;
2024/02/26 08:22:18;;;;;;;8.10;4.97;;;6.20;99.90;;;;;;5167852;23;20155;-93
2024/02/26 08:25:06;;;;;;;8.67;4.47;;;6.20;99.90;;;;;;5173359;22;20151;-94
2024/02/26 08:27:47;;;;;;;;;;;;;;;;;;;;;
2024/02/26 08:30:47;;;;;;;;;;;;;;;;;;;;;
2024/02/26 08:32:50;;;;;;;10.37;5.70;;;6.20;99.90;;;;;;5166647;23;20669;-94
2024/02/26 08:35:13;;;;;;;9.23;5.87;;;6.20;99.90;;;;;;5148786;22;20171;-94
2024/02/26 08:37:20;;;;;;;7.53;4.43;;;6.20;99.90;;;;;;5142382;23;20152;-95
2024/02/26 08:39:23;;;;;;;9.23;6.27;;;6.20;99.90;;;;;;5142903;23;20175;-93
2024/02/26 08:41:44;;;;;;;7.13;4.47;;;6.20;99.90;;;;;;5144268;23;20225;-94
2024/02/26 08:43:47;;;;;;;7.90;4.87;;;6.10;99.90;;;;;;5143340;23;20210;-94
2024/02/26 08:45:55;;;;;;;8.60;5.10;;;6.20;99.90;;;;;;5143741;23;20148;-94
2024/02/26 08:48:06;;;;;;;6.00;3.47;;;6.20;99.90;;;;;;5142916;23;20589;-93
2024/02/26 08:50:09;;;;;;;7.77;4.10;;;6.20;99.90;;;;;;5178963;22;20154;-92
2024/02/26 08:52:10;;;;;;;7.73;3.90;;;6.30;99.90;;;;;;5143506;23;20158;-94
2024/02/26 08:54:29;;;;;;;7.60;4.60;;;6.30;99.90;;;;;;5168726;23;20158;-94
2024/02/26 08:56:58;;;;;;;3.53;2.53;;;6.30;99.90;;;;;;5142959;23;20590;-94
2024/02/26 08:59:04;;;;;;;5.17;3.23;;;6.20;99.90;;;;;;5168437;22;20175;-93
2024/02/26 09:01:20;;;;;;;8.10;3.67;;;6.30;99.90;;;;;;5142852;23;20155;-94
2024/02/26 09:03:32;;;;;;;6.17;4.13;;;6.30;99.90;;;;;;5168786;22;20212;-94
2024/02/26 09:05:33;;;;;;;8.67;4.03;;;6.30;99.90;;;;;;5143039;23;20562;-94
2024/02/26 09:07:58;;;;;;;;;;;;;;;;;;;;;
2024/02/26 09:10:28;;;;;;;6.97;4.80;;;6.20;99.90;;;;;;5168668;23;20229;-95
2024/02/26 09:13:03;;;;;;;10.03;4.73;;;6.20;99.90;;;;;;5143428;23;20168;-94
2024/02/26 09:15:09;;;;;;;7.87;5.07;;;6.20;99.90;;;;;;5137261;23;20172;-95
2024/02/26 09:17:18;;;;;;;6.43;3.97;;;6.20;99.90;;;;;;5143866;23;20155;-94
2024/02/26 09:19:29;;;;;;;7.13;4.13;;;6.20;99.90;;;;;;5169928;22;20224;-95
2024/02/26 09:21:33;;;;;;;7.50;4.50;;;6.20;99.90;;;;;;5142748;23;20597;-94
2024/02/26 09:23:34;;;;;;;9.63;4.47;;;6.10;99.90;;;;;;5143754;23;20152;-94
2024/02/26 09:25:35;;;;;;;7.03;4.17;;;6.10;99.90;;;;;;5142847;23;20947;-94
2024/02/26 09:30:10;;;;;;;8.07;4.70;;;6.10;99.90;;;;;;5151092;23;20151;-93
2024/02/26 09:32:36;;;;;;;7.57;3.80;;;6.00;99.90;;;;;;5144000;23;20160;-94
2024/02/26 09:35:04;;;;;;;6.97;3.87;;;6.00;99.90;;;;;;5171407;22;20237;-94
2024/02/26 09:37:12;;;;;;;6.83;4.30;;;6.00;99.90;;;;;;5145049;23;20162;-95
2024/02/26 09:39:34;;;;;;;;;;;;;;;;;;;;;
2024/02/26 09:42:06;;;;;;;9.23;4.23;;;6.00;99.90;;;;;;5168945;23;20155;-94
2024/02/26 09:44:44;;;;;;;;;;;;;;;;;;;;;
2024/02/26 09:59:07;;;;;;;;;;;;;;;;;;;;;
2024/02/26 10:02:22;;;;;;;7.47;4.30;;;6.00;99.90;;;;;;4915088;24;20184;-95
2024/02/26 10:15:37;;;;;;;5.80;3.43;;;5.90;99.90;;;;;;5193812;22;20215;-96
2024/02/26 10:19:44;;;;;;;;;;;;;;;;;;;;;
2024/02/26 10:26:12;;;;;;;7.97;4.77;;;6.00;99.90;;;;;;4904779;24;20211;-93
